TimeCST,TemperatureF,Dew PointF,Humidity,Sea Level PressureIn,VisibilityMPH,Wind Direction,Wind SpeedMPH,Gust SpeedMPH,PrecipitationIn,Events,Conditions,WindDirDegrees,DateUTC
12:54 AM,17.1,9.0,71,30.38,10.0,East,4.6,-,N/A,,Scattered Clouds,80,2013-01-15 06:54:00
2:54 AM,17.1,10.0,74,30.37,10.0,ESE,3.5,-,N/A,,Mostly Cloudy,110,2013-01-15 08:54:00
3:54 AM,18.0,10.9,74,30.36,10.0,Calm,Calm,-,N/A,,Overcast,0,2013-01-15 09:54:00
4:54 AM,16.0,10.9,81,30.36,10.0,Calm,Calm,-,N/A,,Overcast,0,2013-01-15 10:54:00
5:54 AM,16.0,10.0,77,30.37,10.0,North,5.8,-,N/A,,Scattered Clouds,350,2013-01-15 11:54:00
6:54 AM,16.0,10.9,81,30.38,10.0,NNE,4.6,-,N/A,,Mostly Cloudy,20,2013-01-15 12:54:00
7:54 AM,14.0,9.0,80,30.37,10.0,North,8.1,-,N/A,,Clear,350,2013-01-15 13:54:00
8:54 AM,19.9,12.0,71,30.36,10.0,North,4.6,-,N/A,,Clear,10,2013-01-15 14:54:00
9:54 AM,24.1,12.9,62,30.38,10.0,East,4.6,-,N/A,,Clear,100,2013-01-15 15:54:00
10:54 AM,27.0,10.0,49,30.37,10.0,ESE,5.8,-,N/A,,Clear,110,2013-01-15 16:54:00
11:54 AM,28.9,9.0,43,30.34,10.0,NE,3.5,-,N/A,,Clear,40,2013-01-15 17:54:00
12:54 PM,32.0,10.0,40,30.30,10.0,North,6.9,-,N/A,,Clear,360,2013-01-15 18:54:00
1:54 PM,34.0,9.0,35,30.27,10.0,North,6.9,-,N/A,,Clear,10,2013-01-15 19:54:00
2:54 PM,34.0,8.1,34,30.27,10.0,North,6.9,-,N/A,,Clear,350,2013-01-15 20:54:00
3:54 PM,35.1,10.0,35,30.26,10.0,North,6.9,-,N/A,,Clear,350,2013-01-15 21:54:00
4:54 PM,34.0,10.9,38,30.27,10.0,Calm,Calm,-,N/A,,Clear,0,2013-01-15 22:54:00
5:54 PM,30.0,10.9,45,30.27,10.0,Calm,Calm,-,N/A,,Clear,0,2013-01-15 23:54:00
6:54 PM,28.0,10.9,49,30.28,10.0,Calm,Calm,-,N/A,,Clear,0,2013-01-16 00:54:00
7:54 PM,25.0,12.0,58,30.28,10.0,SSW,4.6,-,N/A,,Clear,200,2013-01-16 01:54:00
8:54 PM,23.0,10.0,58,30.27,10.0,SW,4.6,-,N/A,,Clear,220,2013-01-16 02:54:00
9:54 PM,24.1,12.0,60,30.24,10.0,SSW,8.1,-,N/A,,Clear,210,2013-01-16 03:54:00
10:54 PM,24.1,12.0,60,30.24,10.0,SW,6.9,-,N/A,,Clear,220,2013-01-16 04:54:00